Time;durP1;ratioP1;P1;durP2;ratioP2;P2;SDS_P1;SDS_P2;PMS_P1;PMS_P2;Temp;Humidity;BMP_temperature;BMP_pressure;BME280_temperature;BME280_humidity;BME280_pressure;Samples;Min_cycle;Max_cycle;Signal;HPM_P1;HPM_P2
2022/07/19 00:01:14;;;;;;;3.87;1.10;;;14.90;99.90;;;;;;4955111;29;20235;-65
2022/07/19 00:03:41;;;;;;;2.00;0.77;;;15.30;99.90;;;;;;4955167;29;20180;-65
2022/07/19 00:06:09;;;;;;;2.73;1.20;;;15.70;99.90;;;;;;4954557;28;20184;-65
2022/07/19 00:08:37;;;;;;;1.70;0.97;;;15.80;99.90;;;;;;4955117;29;20172;-65
2022/07/19 00:11:04;;;;;;;3.73;0.90;;;15.60;99.90;;;;;;4959934;28;20184;-67
2022/07/19 00:13:33;;;;;;;1.67;0.80;;;16.50;99.90;;;;;;4954734;28;20223;-67
2022/07/19 00:16:00;;;;;;;2.87;0.80;;;16.70;99.90;;;;;;4962407;28;20187;-67
2022/07/19 00:18:28;;;;;;;4.00;1.00;;;16.80;99.90;;;;;;4961698;28;20218;-66
2022/07/19 00:20:56;;;;;;;9.90;1.03;;;16.70;99.90;;;;;;4973840;28;20680;-67
2022/07/19 00:23:23;;;;;;;3.23;1.07;;;16.70;99.90;;;;;;4970909;28;20183;-65
2022/07/19 00:25:51;;;;;;;4.00;0.80;;;16.90;99.90;;;;;;4954430;28;20193;-66
2022/07/19 00:28:19;;;;;;;3.67;1.13;;;16.90;99.90;;;;;;4959975;28;20234;-66
2022/07/19 00:30:47;;;;;;;4.07;0.97;;;16.80;99.90;;;;;;4973778;28;20180;-65
2022/07/19 00:33:15;;;;;;;6.67;1.00;;;17.00;99.90;;;;;;4972994;28;20228;-66
2022/07/19 00:35:42;;;;;;;2.47;0.80;;;17.00;99.90;;;;;;4973687;28;20196;-66
2022/07/19 00:38:12;;;;;;;4.47;0.93;;;17.20;99.90;;;;;;4958869;28;20192;-66
2022/07/19 00:40:42;;;;;;;4.03;0.90;;;16.80;99.90;;;;;;4952964;29;20236;-66
2022/07/19 00:43:11;;;;;;;5.33;1.20;;;16.80;99.90;;;;;;4954377;28;20197;-67
2022/07/19 00:45:43;;;;;;;5.30;1.30;;;17.10;99.90;;;;;;4954074;28;20227;-67
2022/07/19 00:48:10;;;;;;;2.83;1.27;;;17.50;99.90;;;;;;4968367;28;20202;-67
2022/07/19 00:50:38;;;;;;;3.13;0.80;;;17.90;99.90;;;;;;4973384;28;20573;-67
2022/07/19 00:53:06;;;;;;;2.53;0.73;;;18.10;99.90;;;;;;4973335;28;20225;-67
2022/07/19 00:55:35;;;;;;;2.03;0.80;;;18.20;99.90;;;;;;4973100;28;20188;-65
2022/07/19 00:58:04;;;;;;;3.13;0.87;;;18.60;99.90;;;;;;4960751;28;20209;-66
2022/07/19 01:00:34;;;;;;;4.77;1.03;;;18.80;99.90;;;;;;4968523;28;20190;-67
2022/07/19 01:03:03;;;;;;;4.63;1.20;;;18.60;99.90;;;;;;4971653;28;20196;-67
2022/07/19 01:05:30;;;;;;;3.33;1.13;;;18.70;99.90;;;;;;4973013;28;20194;-68
2022/07/19 01:07:58;;;;;;;5.87;0.80;;;19.10;99.90;;;;;;4960452;28;20203;-66
2022/07/19 01:10:26;;;;;;;2.40;0.90;;;18.50;99.90;;;;;;4953813;28;20180;-66
2022/07/19 01:12:54;;;;;;;2.03;0.80;;;17.70;99.90;;;;;;4953977;28;20651;-67
2022/07/19 01:15:25;;;;;;;3.37;0.87;;;16.90;99.90;;;;;;4962483;28;20231;-67
2022/07/19 01:17:53;;;;;;;2.47;1.10;;;17.50;99.90;;;;;;4962016;28;20187;-67
2022/07/19 01:20:25;;;;;;;3.93;0.90;;;18.50;99.90;;;;;;4960909;28;20218;-67
2022/07/19 01:22:53;;;;;;;3.10;0.90;;;19.00;99.90;;;;;;4964509;28;20560;-68
2022/07/19 01:25:24;;;;;;;3.10;0.80;;;18.70;99.90;;;;;;4961241;28;20193;-67
2022/07/19 01:27:52;;;;;;;0.97;0.53;;;18.80;99.90;;;;;;4962698;28;20196;-67
2022/07/19 01:30:23;;;;;;;2.70;0.63;;;18.20;99.90;;;;;;4959973;28;20876;-67
2022/07/19 01:32:51;;;;;;;0.97;0.73;;;17.20;99.90;;;;;;4964449;28;20643;-66
2022/07/19 01:35:20;;;;;;;2.70;0.80;;;16.30;99.90;;;;;;4953481;28;20179;-67
2022/07/19 01:37:49;;;;;;;2.73;0.60;;;15.70;99.90;;;;;;4963938;28;20184;-67
2022/07/19 01:40:19;;;;;;;0.73;0.60;;;15.30;99.90;;;;;;4972570;28;20232;-67
2022/07/19 01:42:48;;;;;;;1.03;0.67;;;15.50;99.90;;;;;;4956422;28;20180;-66
2022/07/19 01:45:16;;;;;;;4.83;0.70;;;15.60;99.90;;;;;;4968930;28;20179;-66
2022/07/19 01:47:44;;;;;;;2.33;0.60;;;15.60;99.90;;;;;;4966264;28;20190;-68
2022/07/19 01:50:14;;;;;;;2.00;0.60;;;15.60;99.90;;;;;;4969249;28;20194;-68
2022/07/19 01:52:42;;;;;;;0.90;0.63;;;15.40;99.90;;;;;;4962637;28;20577;-65
2022/07/19 01:55:10;;;;;;;1.03;0.60;;;15.40;99.90;;;;;;4954161;28;20241;-66
2022/07/19 01:57:38;;;;;;;2.10;0.80;;;15.40;99.90;;;;;;4960855;28;20190;-67
2022/07/19 02:00:07;;;;;;;8.77;0.90;;;15.40;99.90;;;;;;4963838;28;20694;-67
2022/07/19 02:02:34;;;;;;;2.70;0.70;;;15.50;99.90;;;;;;4972533;28;20187;-66
2022/07/19 02:05:03;;;;;;;1.37;0.80;;;15.40;99.90;;;;;;4970885;28;20270;-68
2022/07/19 02:07:31;;;;;;;3.20;0.83;;;15.60;99.90;;;;;;4965102;28;20182;-66
2022/07/19 02:09:58;;;;;;;1.20;0.67;;;15.70;99.90;;;;;;4962451;28;20294;-66
2022/07/19 02:12:26;;;;;;;1.27;0.77;;;15.70;99.90;;;;;;4971677;28;20225;-65
2022/07/19 02:14:53;;;;;;;1.80;0.80;;;15.70;99.90;;;;;;4972715;28;20183;-66
2022/07/19 02:17:20;;;;;;;2.70;0.70;;;15.90;99.90;;;;;;4965208;28;20644;-65
2022/07/19 02:19:48;;;;;;;2.93;0.97;;;15.80;99.90;;;;;;4953274;28;20572;-66
2022/07/19 02:22:15;;;;;;;1.37;0.70;;;15.60;99.90;;;;;;4954331;28;20577;-66
2022/07/19 02:24:43;;;;;;;3.43;0.70;;;15.70;99.90;;;;;;4954323;28;20187;-65
2022/07/19 02:27:11;;;;;;;1.17;0.60;;;15.60;99.90;;;;;;4957290;28;20892;-66
2022/07/19 02:29:39;;;;;;;2.30;0.90;;;15.60;99.90;;;;;;4974649;28;20183;-66
2022/07/19 02:32:07;;;;;;;1.27;0.53;;;15.40;99.90;;;;;;4963152;28;20533;-66
2022/07/19 02:34:36;;;;;;;0.80;0.60;;;15.40;99.90;;;;;;4969046;28;20209;-66
2022/07/19 02:37:03;;;;;;;2.30;0.70;;;15.20;99.90;;;;;;4975197;28;20187;-67
2022/07/19 02:39:31;;;;;;;1.53;0.60;;;15.30;99.90;;;;;;4975849;28;20234;-67
2022/07/19 02:41:58;;;;;;;2.17;0.60;;;15.40;99.90;;;;;;4960938;28;20720;-66
2022/07/19 02:44:25;;;;;;;1.47;0.73;;;15.80;99.90;;;;;;4973605;28;20214;-67
2022/07/19 02:46:53;;;;;;;0.90;0.60;;;15.90;99.90;;;;;;4958866;28;20242;-66
2022/07/19 02:49:20;;;;;;;1.07;0.50;;;16.10;99.90;;;;;;4957882;28;20205;-67
2022/07/19 02:51:48;;;;;;;0.67;0.60;;;16.20;99.90;;;;;;4965431;28;20556;-68
2022/07/19 02:54:16;;;;;;;1.03;0.57;;;16.10;99.90;;;;;;4966000;28;20215;-66
2022/07/19 02:56:43;;;;;;;1.17;0.70;;;15.80;99.90;;;;;;4970418;28;20287;-66
2022/07/19 02:59:10;;;;;;;1.53;0.70;;;15.70;99.90;;;;;;4973794;28;20190;-67
2022/07/19 03:01:38;;;;;;;2.27;0.67;;;15.50;99.90;;;;;;4971733;28;20554;-66
2022/07/19 03:04:05;;;;;;;1.93;0.70;;;15.60;99.90;;;;;;4957227;28;20203;-66
2022/07/19 03:06:33;;;;;;;1.77;0.67;;;15.80;99.90;;;;;;4957787;28;20180;-66
2022/07/19 03:09:00;;;;;;;2.60;0.80;;;15.60;99.90;;;;;;4969449;28;20641;-67
2022/07/19 03:11:27;;;;;;;0.60;0.60;;;15.40;99.90;;;;;;4974843;28;20232;-68
2022/07/19 03:13:54;;;;;;;0.70;0.60;;;15.40;99.90;;;;;;4965573;28;20216;-66
2022/07/19 03:16:22;;;;;;;3.30;0.80;;;15.20;99.90;;;;;;4954844;28;20194;-67
2022/07/19 03:18:49;;;;;;;1.67;0.70;;;15.00;99.90;;;;;;4956947;28;20572;-66
2022/07/19 03:21:16;;;;;;;2.30;0.87;;;15.00;99.90;;;;;;4955903;28;20182;-67
2022/07/19 03:23:44;;;;;;;3.17;0.63;;;15.00;99.90;;;;;;4968516;28;20281;-66
2022/07/19 03:26:11;;;;;;;3.40;0.77;;;15.10;99.90;;;;;;4956813;28;20182;-68
2022/07/19 03:28:39;;;;;;;2.50;0.70;;;15.00;99.90;;;;;;4970261;28;20182;-67
2022/07/19 03:31:06;;;;;;;2.07;1.10;;;14.90;99.90;;;;;;4972871;28;20522;-67
2022/07/19 03:33:34;;;;;;;3.87;0.80;;;14.80;99.90;;;;;;4968513;28;20221;-67
2022/07/19 03:36:01;;;;;;;1.10;0.70;;;14.80;99.90;;;;;;4973197;28;20214;-68
2022/07/19 03:38:28;;;;;;;1.33;0.73;;;14.90;99.90;;;;;;4959137;28;20195;-67
2022/07/19 03:40:56;;;;;;;4.73;1.00;;;14.90;99.90;;;;;;4954813;28;20189;-67
2022/07/19 03:43:23;;;;;;;1.27;0.80;;;14.80;99.90;;;;;;4969711;28;20234;-69
2022/07/19 03:45:50;;;;;;;1.63;0.70;;;14.90;99.90;;;;;;4972967;28;20189;-67
2022/07/19 03:48:18;;;;;;;2.87;1.10;;;14.90;99.90;;;;;;4972369;28;20221;-67
2022/07/19 03:50:45;;;;;;;1.50;0.80;;;14.80;99.90;;;;;;4964608;28;20675;-67
2022/07/19 03:53:13;;;;;;;2.17;0.90;;;14.90;99.90;;;;;;4973767;28;20253;-67
2022/07/19 03:55:40;;;;;;;3.90;1.60;;;14.90;99.90;;;;;;4971540;28;20186;-68
2022/07/19 03:58:08;;;;;;;2.47;1.07;;;14.90;99.90;;;;;;4955756;28;20192;-68
2022/07/19 04:00:35;;;;;;;1.83;1.00;;;14.90;99.90;;;;;;4969882;28;20547;-68
2022/07/19 04:03:02;;;;;;;2.67;0.90;;;14.80;99.90;;;;;;4961591;28;20190;-69
2022/07/19 04:05:30;;;;;;;0.73;0.73;;;14.80;99.90;;;;;;4967734;28;20272;-66
2022/07/19 04:07:57;;;;;;;2.57;0.97;;;14.70;99.90;;;;;;4974063;28;20189;-66
2022/07/19 04:10:24;;;;;;;3.30;0.90;;;14.70;99.90;;;;;;4964556;28;20230;-66
2022/07/19 04:12:53;;;;;;;3.03;0.80;;;14.70;99.90;;;;;;4963222;28;20268;-67
2022/07/19 04:15:20;;;;;;;2.13;0.83;;;14.60;99.90;;;;;;4978316;28;20651;-66
2022/07/19 04:17:47;;;;;;;1.57;0.70;;;14.70;99.90;;;;;;4970035;28;20581;-67
2022/07/19 04:20:15;;;;;;;2.87;0.80;;;14.50;99.90;;;;;;4972854;28;20190;-67
2022/07/19 04:22:42;;;;;;;3.40;0.90;;;14.40;99.90;;;;;;4964575;28;20222;-67
2022/07/19 04:25:10;;;;;;;4.80;0.80;;;14.40;99.90;;;;;;4973523;28;20207;-67
2022/07/19 04:27:37;;;;;;;2.27;0.87;;;14.50;99.90;;;;;;4966966;28;20185;-67
2022/07/19 04:30:05;;;;;;;1.30;0.87;;;14.40;99.90;;;;;;4964998;28;20580;-68
2022/07/19 04:32:34;;;;;;;0.60;0.60;;;14.40;99.90;;;;;;4955158;28;20190;-66
2022/07/19 04:35:02;;;;;;;3.60;0.73;;;14.20;99.90;;;;;;4954522;28;20195;-68
2022/07/19 04:37:29;;;;;;;1.13;0.60;;;14.00;99.90;;;;;;4953985;28;20209;-66
2022/07/19 04:39:57;;;;;;;3.77;0.90;;;14.00;99.90;;;;;;4954291;29;20233;-67
2022/07/19 04:42:24;;;;;;;1.80;0.80;;;13.90;99.90;;;;;;4955405;28;20187;-67
2022/07/19 04:44:51;;;;;;;1.20;0.80;;;13.90;99.90;;;;;;4963875;28;20643;-68
2022/07/19 04:47:18;;;;;;;3.70;0.87;;;14.00;99.90;;;;;;4973551;28;20200;-68
2022/07/19 04:49:46;;;;;;;1.70;0.93;;;14.00;99.90;;;;;;4973181;28;20187;-67
2022/07/19 04:52:13;;;;;;;2.23;0.70;;;13.90;99.90;;;;;;4963663;28;20172;-68
2022/07/19 04:54:40;;;;;;;1.43;0.67;;;14.00;99.90;;;;;;4954036;29;20190;-68
2022/07/19 04:57:08;;;;;;;4.93;0.80;;;13.90;99.90;;;;;;4954077;29;20170;-69
2022/07/19 04:59:35;;;;;;;0.73;0.67;;;14.00;99.90;;;;;;4969687;28;20192;-67
2022/07/19 05:02:02;;;;;;;1.13;0.73;;;13.90;99.90;;;;;;4972951;28;20189;-68
2022/07/19 05:04:30;;;;;;;1.90;0.70;;;13.90;99.90;;;;;;4970365;28;20650;-68
2022/07/19 05:06:57;;;;;;;4.13;0.90;;;13.90;99.90;;;;;;4972909;28;20174;-67
2022/07/19 05:09:26;;;;;;;1.23;0.70;;;13.90;99.90;;;;;;4971656;28;20204;-67
2022/07/19 05:11:54;;;;;;;3.57;0.80;;;13.80;99.90;;;;;;4973332;28;20242;-67
2022/07/19 05:14:21;;;;;;;2.77;0.70;;;13.70;99.90;;;;;;4973242;28;20224;-67
2022/07/19 05:16:50;;;;;;;2.50;0.73;;;13.70;99.90;;;;;;4973335;28;20177;-67
2022/07/19 05:19:18;;;;;;;1.47;0.70;;;13.50;99.90;;;;;;4956668;28;20683;-66
2022/07/19 05:21:45;;;;;;;2.20;0.73;;;13.50;99.90;;;;;;4952548;29;20240;-66
2022/07/19 05:24:13;;;;;;;4.20;0.97;;;13.50;99.90;;;;;;4953945;28;20191;-68
2022/07/19 05:26:40;;;;;;;1.80;0.63;;;13.50;99.90;;;;;;4953544;29;20238;-68
2022/07/19 05:29:08;;;;;;;2.80;0.80;;;13.60;99.90;;;;;;4953920;28;20204;-68
2022/07/19 05:31:35;;;;;;;1.90;0.70;;;13.60;99.90;;;;;;4970098;28;20188;-68
2022/07/19 05:34:03;;;;;;;3.40;0.80;;;13.50;99.90;;;;;;4972883;28;20566;-68
2022/07/19 05:36:30;;;;;;;1.93;0.83;;;13.60;99.90;;;;;;4965464;28;20214;-68
2022/07/19 05:38:58;;;;;;;1.17;0.80;;;13.60;99.90;;;;;;4964778;28;20224;-68
2022/07/19 05:41:25;;;;;;;0.90;0.70;;;13.60;99.90;;;;;;4971316;28;20189;-68
2022/07/19 05:43:53;;;;;;;1.37;1.00;;;13.50;99.90;;;;;;4971654;28;20283;-68
2022/07/19 05:46:21;;;;;;;3.17;0.90;;;13.50;99.90;;;;;;4971557;28;20205;-68
2022/07/19 05:48:49;;;;;;;1.53;0.70;;;13.40;99.90;;;;;;4960873;28;20186;-68
2022/07/19 05:51:16;;;;;;;0.63;0.60;;;13.30;99.90;;;;;;4953419;28;20668;-68
2022/07/19 05:53:44;;;;;;;1.57;0.73;;;13.30;99.90;;;;;;4953579;29;20681;-68
2022/07/19 05:56:11;;;;;;;2.63;0.70;;;13.20;99.90;;;;;;4953714;28;20174;-68
2022/07/19 05:58:38;;;;;;;3.03;1.10;;;13.10;99.90;;;;;;4961311;28;20187;-68
2022/07/19 06:01:19;;;;;;;1.00;0.90;;;13.10;99.90;;;;;;4963537;28;20193;-68
2022/07/19 06:03:59;;;;;;;3.23;1.40;;;12.90;99.90;;;;;;4954412;28;20655;-67
2022/07/19 06:06:28;;;;;;;1.67;1.00;;;12.90;99.90;;;;;;4957304;28;20686;-68
2022/07/19 06:08:56;;;;;;;1.37;0.80;;;12.90;99.90;;;;;;4958259;28;20189;-68
2022/07/19 06:11:24;;;;;;;1.20;0.83;;;12.80;99.90;;;;;;4956916;29;20649;-71
2022/07/19 06:13:52;;;;;;;2.17;1.20;;;12.60;99.90;;;;;;4956923;28;20226;-68
2022/07/19 06:16:20;;;;;;;2.43;1.20;;;12.60;99.90;;;;;;4957089;28;20189;-68
2022/07/19 06:18:48;;;;;;;2.87;0.93;;;12.50;99.90;;;;;;4964927;28;20645;-68
2022/07/19 06:21:17;;;;;;;2.40;1.20;;;12.40;99.90;;;;;;4976372;28;20185;-68
2022/07/19 06:23:45;;;;;;;1.30;1.10;;;12.40;99.90;;;;;;4970915;28;20193;-68
2022/07/19 06:26:13;;;;;;;3.13;1.40;;;12.20;99.90;;;;;;4956864;28;20231;-67
2022/07/19 06:28:41;;;;;;;3.20;1.67;;;12.10;99.90;;;;;;4963859;28;20203;-68
2022/07/19 06:31:12;;;;;;;3.03;1.30;;;12.10;99.90;;;;;;4976109;28;20207;-68
2022/07/19 06:33:45;;;;;;;2.73;1.30;;;12.00;99.90;;;;;;4963002;28;20215;-68
2022/07/19 06:36:13;;;;;;;1.57;1.20;;;12.00;99.90;;;;;;4956823;29;20613;-67
2022/07/19 06:38:44;;;;;;;3.07;1.00;;;11.90;99.90;;;;;;4956429;28;20280;-69
2022/07/19 06:41:14;;;;;;;1.63;0.97;;;11.80;99.90;;;;;;4956702;29;20177;-67
2022/07/19 06:43:42;;;;;;;1.37;1.00;;;11.90;99.90;;;;;;4967527;28;20191;-68
2022/07/19 06:46:10;;;;;;;4.43;1.00;;;11.80;99.90;;;;;;4975743;28;20173;-66
2022/07/19 06:48:37;;;;;;;2.27;0.90;;;11.80;99.90;;;;;;4975707;28;20188;-67
2022/07/19 06:51:07;;;;;;;0.83;0.83;;;11.90;99.90;;;;;;4975541;28;20594;-67
2022/07/19 06:53:35;;;;;;;2.50;0.90;;;11.80;99.90;;;;;;4965493;28;20571;-66
2022/07/19 06:56:02;;;;;;;2.60;1.10;;;11.80;99.90;;;;;;4956281;29;20191;-67
2022/07/19 06:58:29;;;;;;;1.53;1.00;;;11.70;99.90;;;;;;4957262;28;20234;-66
2022/07/19 07:00:57;;;;;;;1.27;0.90;;;11.60;99.90;;;;;;4956225;29;20654;-66
2022/07/19 07:03:24;;;;;;;2.97;1.50;;;11.60;99.90;;;;;;4967615;28;20197;-66
2022/07/19 07:05:52;;;;;;;4.83;1.67;;;11.60;99.90;;;;;;4955956;29;20184;-68
2022/07/19 07:08:19;;;;;;;2.70;1.47;;;11.50;99.90;;;;;;4961047;28;20222;-69
2022/07/19 07:10:46;;;;;;;2.33;1.20;;;11.50;99.90;;;;;;4975245;28;20642;-67
2022/07/19 07:13:14;;;;;;;1.60;1.20;;;11.40;99.90;;;;;;4974954;28;20215;-67
2022/07/19 07:15:42;;;;;;;1.77;0.97;;;11.40;99.90;;;;;;4974251;28;20190;-68
2022/07/19 07:18:09;;;;;;;2.33;1.00;;;11.50;99.90;;;;;;4971117;28;20180;-68
2022/07/19 07:23:59;;;;;;;3.03;1.10;;;11.50;99.90;;;;;;4957186;28;20218;-68
2022/07/19 07:26:26;;;;;;;3.40;1.30;;;11.40;99.90;;;;;;4955934;28;20186;-69
2022/07/19 07:28:54;;;;;;;4.00;1.30;;;11.40;99.90;;;;;;4955992;29;20181;-69
2022/07/19 07:31:21;;;;;;;3.37;1.50;;;11.30;99.90;;;;;;4967608;28;20192;-69
2022/07/19 07:33:48;;;;;;;2.83;1.20;;;11.30;99.90;;;;;;4970080;28;20216;-68
2022/07/19 07:36:16;;;;;;;6.23;1.37;;;11.30;99.90;;;;;;4955621;29;20195;-69
2022/07/19 07:38:43;;;;;;;2.50;1.57;;;11.30;99.90;;;;;;4955595;29;20256;-68
2022/07/19 07:41:11;;;;;;;7.57;2.17;;;11.30;99.90;;;;;;4955643;28;20238;-69
2022/07/19 07:43:38;;;;;;;3.60;1.57;;;11.30;99.90;;;;;;4963686;28;20192;-69
2022/07/19 07:46:06;;;;;;;4.23;1.73;;;11.30;99.90;;;;;;4974852;28;20226;-69
2022/07/19 07:48:34;;;;;;;2.23;1.60;;;11.30;99.90;;;;;;4975005;28;20199;-69
2022/07/19 07:51:01;;;;;;;4.50;2.30;;;11.20;99.90;;;;;;4974451;28;20200;-69
2022/07/19 07:53:28;;;;;;;4.00;1.67;;;11.30;99.90;;;;;;4974687;28;20560;-68
2022/07/19 07:55:56;;;;;;;2.80;1.90;;;11.20;99.90;;;;;;4963109;28;20609;-68
2022/07/19 07:58:23;;;;;;;5.37;1.80;;;11.20;99.90;;;;;;4958565;28;20486;-67
2022/07/19 08:00:50;;;;;;;4.87;2.00;;;11.20;99.90;;;;;;4971384;28;20188;-69
2022/07/19 08:03:18;;;;;;;3.43;1.70;;;11.20;99.90;;;;;;4959559;28;20193;-67
2022/07/19 08:05:47;;;;;;;3.10;2.00;;;11.20;99.90;;;;;;4954942;28;20192;-68
2022/07/19 08:08:15;;;;;;;4.23;2.20;;;11.10;99.90;;;;;;4954977;28;20200;-68
2022/07/19 08:10:43;;;;;;;6.83;3.10;;;11.10;99.90;;;;;;4954870;29;20191;-68
2022/07/19 08:13:10;;;;;;;4.67;2.70;;;11.00;99.90;;;;;;4954899;29;20219;-68
2022/07/19 08:15:39;;;;;;;5.03;2.40;;;11.00;99.90;;;;;;4967125;28;20187;-67
2022/07/19 08:18:06;;;;;;;3.73;2.30;;;11.00;99.90;;;;;;4974113;28;20187;-68
2022/07/19 08:20:34;;;;;;;4.27;2.70;;;11.00;99.90;;;;;;4974189;28;20182;-66
2022/07/19 08:23:01;;;;;;;4.17;2.50;;;11.00;99.90;;;;;;4973725;28;20299;-67
2022/07/19 08:25:29;;;;;;;4.67;2.23;;;11.00;99.90;;;;;;4973987;28;20175;-68
2022/07/19 08:27:56;;;;;;;6.57;2.40;;;11.00;99.90;;;;;;4960641;28;20207;-67
2022/07/19 08:30:23;;;;;;;5.60;2.70;;;11.00;99.90;;;;;;4973518;28;20192;-68
2022/07/19 08:32:50;;;;;;;3.93;2.63;;;11.10;99.90;;;;;;4973534;28;20208;-68
2022/07/19 08:35:18;;;;;;;4.73;2.10;;;11.10;99.90;;;;;;4973833;28;20199;-68
2022/07/19 08:37:45;;;;;;;3.63;1.80;;;11.10;99.90;;;;;;4973739;28;20288;-67
2022/07/19 08:40:13;;;;;;;2.83;1.80;;;11.00;99.90;;;;;;4967054;28;20227;-67
2022/07/19 08:43:08;;;;;;;2.17;1.80;;;11.00;99.90;;;;;;4954428;28;20267;-67
2022/07/19 08:45:41;;;;;;;4.43;1.80;;;11.00;99.90;;;;;;4954250;29;20185;-68
2022/07/19 08:48:08;;;;;;;2.20;1.73;;;10.90;99.90;;;;;;4954359;28;20188;-68
2022/07/19 08:50:36;;;;;;;1.97;1.40;;;10.90;99.90;;;;;;4954362;28;20273;-66
2022/07/19 08:53:04;;;;;;;2.87;1.77;;;11.00;99.90;;;;;;4957876;28;20204;-68
2022/07/19 08:55:32;;;;;;;3.80;1.60;;;11.00;99.90;;;;;;4954294;28;20268;-67
2022/07/19 08:58:01;;;;;;;3.13;1.70;;;10.90;99.90;;;;;;4954113;28;20244;-68
2022/07/19 09:00:33;;;;;;;4.93;1.60;;;10.90;99.90;;;;;;4954133;28;20212;-67
2022/07/19 09:03:06;;;;;;;4.97;2.23;;;11.00;99.90;;;;;;4954318;28;20177;-67
2022/07/19 09:05:34;;;;;;;5.97;1.87;;;10.90;99.90;;;;;;4954315;28;20553;-67
2022/07/19 09:08:12;;;;;;;3.33;1.70;;;10.80;99.90;;;;;;4952831;28;20173;-67
2022/07/19 09:10:43;;;;;;;2.13;1.40;;;10.80;99.90;;;;;;4953707;29;20618;-68
2022/07/19 09:13:12;;;;;;;3.17;1.67;;;10.80;99.90;;;;;;4954188;28;20223;-69
2022/07/19 09:15:54;;;;;;;3.03;1.87;;;10.80;99.90;;;;;;4954886;28;20177;-68
2022/07/19 09:18:27;;;;;;;2.50;1.80;;;10.70;99.90;;;;;;4954832;28;20231;-68
2022/07/19 09:20:57;;;;;;;1.83;1.50;;;10.70;99.90;;;;;;4973332;28;20183;-67
2022/07/19 09:23:25;;;;;;;5.17;1.60;;;10.60;99.90;;;;;;4973343;28;20270;-68
2022/07/19 09:25:55;;;;;;;3.37;1.50;;;10.60;99.90;;;;;;4972881;28;20224;-69
2022/07/19 09:28:25;;;;;;;1.33;1.20;;;10.60;99.90;;;;;;4973472;28;20202;-67
2022/07/19 09:30:55;;;;;;;4.20;1.40;;;10.60;99.90;;;;;;4967823;28;20192;-67
2022/07/19 09:33:31;;;;;;;3.60;1.47;;;10.60;99.90;;;;;;4953922;28;20239;-67
2022/07/19 09:36:04;;;;;;;2.50;1.40;;;10.60;99.90;;;;;;4953971;28;20186;-69
2022/07/19 09:38:36;;;;;;;3.10;1.50;;;10.60;99.90;;;;;;4954375;28;20184;-67
2022/07/19 09:41:20;;;;;;;2.87;1.50;;;10.60;99.90;;;;;;4957841;28;20627;-69
2022/07/19 09:43:55;;;;;;;2.97;1.70;;;10.60;99.90;;;;;;4959184;28;20604;-67
2022/07/19 09:46:36;;;;;;;4.73;1.57;;;10.60;99.90;;;;;;4976847;28;20553;-69
2022/07/19 09:49:13;;;;;;;2.40;1.90;;;10.60;99.90;;;;;;4979345;28;20185;-68
2022/07/19 09:51:45;;;;;;;3.20;1.87;;;10.60;99.90;;;;;;4959983;28;20177;-68
2022/07/19 09:54:17;;;;;;;1.87;1.60;;;10.60;99.90;;;;;;4959059;28;20568;-68
2022/07/19 09:56:46;;;;;;;7.33;1.80;;;10.50;99.90;;;;;;4959397;28;20370;-66
2022/07/19 09:59:14;;;;;;;3.90;2.67;;;10.50;99.90;;;;;;4961033;28;20646;-68
2022/07/19 10:01:42;;;;;;;5.33;3.30;;;10.40;99.90;;;;;;4958556;28;20654;-67
2022/07/19 10:04:14;;;;;;;2.70;2.20;;;10.40;99.90;;;;;;4959329;28;20235;-67
2022/07/19 10:06:42;;;;;;;3.80;1.83;;;10.40;99.90;;;;;;4977990;28;20642;-68
2022/07/19 10:09:12;;;;;;;6.10;1.73;;;10.30;99.90;;;;;;4976616;28;20262;-69
2022/07/19 10:11:40;;;;;;;3.67;2.77;;;10.20;99.90;;;;;;4976744;28;20187;-68
2022/07/19 10:14:08;;;;;;;4.93;3.47;;;10.20;99.90;;;;;;4977696;28;20223;-67
2022/07/19 10:16:54;;;;;;;4.93;2.00;;;10.10;99.90;;;;;;4977739;28;20187;-68
2022/07/19 10:19:27;;;;;;;4.13;2.17;;;10.00;99.90;;;;;;4977460;28;20550;-68
2022/07/19 10:21:55;;;;;;;4.03;2.03;;;10.00;99.90;;;;;;4977658;28;20190;-68
2022/07/19 10:24:44;;;;;;;2.63;1.90;;;10.00;99.90;;;;;;4977788;28;20187;-69
2022/07/19 10:27:14;;;;;;;4.27;2.03;;;9.90;99.90;;;;;;4977756;28;20214;-67
2022/07/19 10:29:41;;;;;;;2.43;1.73;;;9.90;99.90;;;;;;4977555;28;20263;-68
2022/07/19 10:32:15;;;;;;;4.40;2.30;;;10.00;99.90;;;;;;4961988;28;20266;-68
2022/07/19 10:34:46;;;;;;;4.57;2.83;;;10.00;99.90;;;;;;4957860;28;20219;-68
2022/07/19 10:37:13;;;;;;;8.30;3.10;;;10.10;99.90;;;;;;4957940;28;20582;-68
2022/07/19 10:39:41;;;;;;;7.07;3.13;;;10.10;99.90;;;;;;4969685;28;20315;-69
2022/07/19 10:42:14;;;;;;;3.90;1.77;;;10.10;99.90;;;;;;4962064;28;20235;-68
2022/07/19 10:45:02;;;;;;;2.63;2.00;;;10.10;99.90;;;;;;4957718;28;20266;-67
2022/07/19 10:47:42;;;;;;;2.93;1.70;;;10.10;99.90;;;;;;4958095;29;20180;-69
2022/07/19 10:50:18;;;;;;;2.07;1.73;;;10.10;99.90;;;;;;4957605;28;20210;-68
2022/07/19 10:52:46;;;;;;;3.60;2.40;;;10.20;99.90;;;;;;4957567;28;20226;-68
2022/07/19 10:55:25;;;;;;;6.20;3.00;;;10.10;99.90;;;;;;4957673;28;20184;-67
2022/07/19 10:58:07;;;;;;;3.63;2.23;;;10.10;99.90;;;;;;4957652;28;20224;-69
2022/07/19 11:00:49;;;;;;;3.43;2.10;;;10.10;99.90;;;;;;4958771;28;20190;-67
2022/07/19 11:03:22;;;;;;;2.93;2.07;;;10.20;99.90;;;;;;4957751;28;20272;-67
2022/07/19 11:06:01;;;;;;;4.23;2.87;;;10.20;99.90;;;;;;4957590;29;20179;-68
2022/07/19 11:08:37;;;;;;;6.77;2.93;;;10.20;99.90;;;;;;4975581;28;20188;-68
2022/07/19 11:11:09;;;;;;;4.37;2.60;;;10.20;99.90;;;;;;4970931;28;20548;-68
2022/07/19 11:13:38;;;;;;;3.37;1.97;;;10.20;99.90;;;;;;4957220;29;20207;-67
2022/07/19 11:16:06;;;;;;;10.13;4.03;;;10.20;99.90;;;;;;4960241;28;20724;-67
2022/07/19 11:18:34;;;;;;;8.47;5.13;;;10.20;99.90;;;;;;4957189;28;20183;-67
2022/07/19 11:21:06;;;;;;;7.17;4.03;;;10.20;99.90;;;;;;4963427;28;20547;-67
2022/07/19 11:23:39;;;;;;;7.10;4.00;;;10.20;99.90;;;;;;4976561;28;20183;-68
2022/07/19 11:26:27;;;;;;;10.07;5.23;;;10.20;99.90;;;;;;4973166;28;20204;-67
2022/07/19 11:28:55;;;;;;;8.60;3.67;;;10.30;99.90;;;;;;4976500;28;20176;-67
2022/07/19 11:31:24;;;;;;;8.23;4.40;;;10.30;99.90;;;;;;4969425;28;20184;-68
2022/07/19 11:33:58;;;;;;;9.87;4.23;;;10.30;99.90;;;;;;4971728;28;20769;-69
2022/07/19 11:36:27;;;;;;;5.53;3.87;;;10.30;99.90;;;;;;4976462;28;20184;-69
2022/07/19 11:39:00;;;;;;;4.13;2.87;;;10.20;99.90;;;;;;4975252;28;20220;-69
2022/07/19 11:41:33;;;;;;;5.67;2.40;;;10.20;99.90;;;;;;4976284;28;20171;-67
2022/07/19 11:44:04;;;;;;;7.17;2.57;;;10.00;99.90;;;;;;4972353;28;20209;-68
2022/07/19 11:46:42;;;;;;;8.57;4.07;;;10.00;99.90;;;;;;4966407;28;20180;-69
2022/07/19 11:49:13;;;;;;;10.60;6.23;;;9.90;99.90;;;;;;4960820;28;20708;-69
2022/07/19 11:51:40;;;;;;;4.77;3.50;;;9.90;99.90;;;;;;4975764;28;20273;-68
2022/07/19 11:54:09;;;;;;;9.33;4.33;;;9.80;99.90;;;;;;4975873;28;20241;-67
2022/07/19 11:56:37;;;;;;;7.10;3.93;;;9.70;99.90;;;;;;4976073;28;20183;-68
2022/07/19 11:59:10;;;;;;;4.80;3.00;;;9.60;99.90;;;;;;4972301;28;20179;-68
2022/07/19 12:01:39;;;;;;;5.37;2.00;;;9.50;99.90;;;;;;4955810;28;20217;-68
2022/07/19 12:04:12;;;;;;;7.20;3.43;;;9.50;99.90;;;;;;4956584;28;20653;-67
2022/07/19 12:06:45;;;;;;;8.63;3.57;;;9.40;99.90;;;;;;4961258;28;20663;-67
2022/07/19 12:09:16;;;;;;;4.93;3.53;;;9.50;99.90;;;;;;4971016;28;20192;-67
2022/07/19 12:11:46;;;;;;;7.47;3.97;;;9.40;99.90;;;;;;4956218;28;20217;-67
2022/07/19 12:14:25;;;;;;;4.27;3.20;;;9.40;99.90;;;;;;4955970;28;20227;-66
2022/07/19 12:17:17;;;;;;;5.47;3.37;;;9.40;99.90;;;;;;4956405;29;20180;-67
2022/07/19 12:19:52;;;;;;;7.03;4.43;;;9.50;99.90;;;;;;4964343;28;20555;-68
2022/07/19 12:22:35;;;;;;;4.60;4.17;;;9.60;99.90;;;;;;4975033;28;20197;-67
2022/07/19 12:25:05;;;;;;;2.97;2.67;;;9.60;99.90;;;;;;4973956;28;20183;-68
2022/07/19 12:27:33;;;;;;;8.50;4.47;;;9.60;99.90;;;;;;4975351;28;20210;-68
2022/07/19 12:30:04;;;;;;;4.47;3.57;;;9.70;99.90;;;;;;4963584;28;20745;-67
2022/07/19 12:32:43;;;;;;;3.63;2.60;;;9.70;99.90;;;;;;4955957;28;20711;-68
2022/07/19 12:35:15;;;;;;;6.27;2.63;;;9.80;99.90;;;;;;4964432;28;20656;-67
2022/07/19 12:37:50;;;;;;;6.30;3.60;;;9.80;99.90;;;;;;4957017;28;20218;-67
2022/07/19 12:40:25;;;;;;;5.67;2.80;;;9.80;99.90;;;;;;4955867;28;20242;-68
2022/07/19 12:43:05;;;;;;;4.20;1.90;;;9.90;99.90;;;;;;4955811;28;20195;-67
2022/07/19 12:45:35;;;;;;;2.57;1.93;;;9.90;99.90;;;;;;4957782;28;20539;-67
2022/07/19 12:48:03;;;;;;;4.80;2.10;;;9.90;99.90;;;;;;4968370;28;20219;-68
2022/07/19 12:50:36;;;;;;;4.40;2.13;;;9.90;99.90;;;;;;4960331;28;20172;-67
2022/07/19 12:53:06;;;;;;;3.77;2.27;;;9.90;99.90;;;;;;4963286;28;20211;-67
2022/07/19 12:55:34;;;;;;;3.57;1.90;;;10.00;99.90;;;;;;4959687;28;20176;-68
2022/07/19 12:58:04;;;;;;;4.80;2.80;;;10.00;99.90;;;;;;4965766;28;20204;-68
2022/07/19 13:00:32;;;;;;;3.13;1.60;;;9.90;99.90;;;;;;4956417;28;20184;-67
2022/07/19 13:03:01;;;;;;;5.37;2.90;;;9.90;99.90;;;;;;4969382;28;20175;-67